sensor_id;sensor_type;location;lat;lon;timestamp;temperature;humidity
28677;DHT22;15858;48.338;11.078;2022-12-18T00:01:35;-4.00;99.90
28677;DHT22;15858;48.338;11.078;2022-12-18T00:04:06;-4.10;99.90
28677;DHT22;15858;48.338;11.078;2022-12-18T00:06:34;-4.00;99.90
28677;DHT22;15858;48.338;11.078;2022-12-18T00:09:02;-4.10;99.90
28677;DHT22;15858;48.338;11.078;2022-12-18T00:11:30;-4.10;99.90
28677;DHT22;15858;48.338;11.078;2022-12-18T00:13:59;-4.10;99.90
28677;DHT22;15858;48.338;11.078;2022-12-18T00:16:27;-3.90;99.90
28677;DHT22;15858;48.338;11.078;2022-12-18T00:18:56;-4.00;99.90
28677;DHT22;15858;48.338;11.078;2022-12-18T00:21:23;-4.10;99.90
28677;DHT22;15858;48.338;11.078;2022-12-18T00:23:50;-4.20;99.90
28677;DHT22;15858;48.338;11.078;2022-12-18T00:26:20;-4.20;99.90
28677;DHT22;15858;48.338;11.078;2022-12-18T00:28:48;-4.10;99.90
28677;DHT22;15858;48.338;11.078;2022-12-18T00:31:17;-4.10;99.90
28677;DHT22;15858;48.338;11.078;2022-12-18T00:33:44;-4.20;99.90
28677;DHT22;15858;48.338;11.078;2022-12-18T00:36:14;-4.00;99.90
28677;DHT22;15858;48.338;11.078;2022-12-18T00:38:41;-4.10;99.90
28677;DHT22;15858;48.338;11.078;2022-12-18T00:41:11;-4.10;99.90
28677;DHT22;15858;48.338;11.078;2022-12-18T00:43:39;-4.20;99.90
28677;DHT22;15858;48.338;11.078;2022-12-18T00:46:06;-4.30;99.90
28677;DHT22;15858;48.338;11.078;2022-12-18T00:48:33;-4.20;99.90
28677;DHT22;15858;48.338;11.078;2022-12-18T00:51:00;-4.10;99.90
28677;DHT22;15858;48.338;11.078;2022-12-18T00:53:26;-4.30;99.90
28677;DHT22;15858;48.338;11.078;2022-12-18T00:55:53;-4.20;99.90
28677;DHT22;15858;48.338;11.078;2022-12-18T00:58:19;-4.30;99.90
28677;DHT22;15858;48.338;11.078;2022-12-18T01:00:46;-4.20;99.90
28677;DHT22;15858;48.338;11.078;2022-12-18T01:03:14;-4.10;99.90
28677;DHT22;15858;48.338;11.078;2022-12-18T01:05:41;-4.30;99.90
28677;DHT22;15858;48.338;11.078;2022-12-18T01:08:09;-4.40;99.90
28677;DHT22;15858;48.338;11.078;2022-12-18T01:10:35;-4.40;99.90
28677;DHT22;15858;48.338;11.078;2022-12-18T01:13:02;-4.30;99.90
28677;DHT22;15858;48.338;11.078;2022-12-18T01:15:29;-4.20;99.90
28677;DHT22;15858;48.338;11.078;2022-12-18T01:17:55;-4.20;99.90
28677;DHT22;15858;48.338;11.078;2022-12-18T01:20:22;-4.30;99.90
28677;DHT22;15858;48.338;11.078;2022-12-18T01:22:49;-4.40;99.90
28677;DHT22;15858;48.338;11.078;2022-12-18T01:25:15;-4.50;99.90
28677;DHT22;15858;48.338;11.078;2022-12-18T01:27:42;-4.60;99.90
28677;DHT22;15858;48.338;11.078;2022-12-18T01:30:09;-4.50;99.90
28677;DHT22;15858;48.338;11.078;2022-12-18T01:32:35;-4.50;99.90
28677;DHT22;15858;48.338;11.078;2022-12-18T01:35:02;-4.60;99.90
28677;DHT22;15858;48.338;11.078;2022-12-18T01:37:29;-4.40;99.90
28677;DHT22;15858;48.338;11.078;2022-12-18T01:39:56;-4.60;99.90
28677;DHT22;15858;48.338;11.078;2022-12-18T01:42:22;-4.50;99.90
28677;DHT22;15858;48.338;11.078;2022-12-18T01:47:57;-4.70;99.90
28677;DHT22;15858;48.338;11.078;2022-12-18T01:55:29;-4.70;99.90
28677;DHT22;15858;48.338;11.078;2022-12-18T01:57:59;-4.70;99.90
28677;DHT22;15858;48.338;11.078;2022-12-18T02:00:26;-4.60;99.90
28677;DHT22;15858;48.338;11.078;2022-12-18T02:02:54;-4.80;99.90
28677;DHT22;15858;48.338;11.078;2022-12-18T02:05:34;-4.80;99.90
28677;DHT22;15858;48.338;11.078;2022-12-18T02:11:07;-4.80;99.90
28677;DHT22;15858;48.338;11.078;2022-12-18T02:16:44;-4.90;99.90
28677;DHT22;15858;48.338;11.078;2022-12-18T02:28:05;-4.60;99.90
28677;DHT22;15858;48.338;11.078;2022-12-18T02:30:35;-4.40;99.90
28677;DHT22;15858;48.338;11.078;2022-12-18T02:33:06;-4.40;99.90
28677;DHT22;15858;48.338;11.078;2022-12-18T02:35:36;-4.50;99.90
28677;DHT22;15858;48.338;11.078;2022-12-18T02:38:03;-4.50;99.90
28677;DHT22;15858;48.338;11.078;2022-12-18T02:40:30;-4.60;99.90
28677;DHT22;15858;48.338;11.078;2022-12-18T02:43:12;-4.60;99.90
28677;DHT22;15858;48.338;11.078;2022-12-18T02:48:17;-4.70;99.90
28677;DHT22;15858;48.338;11.078;2022-12-18T02:51:12;-4.60;99.90
28677;DHT22;15858;48.338;11.078;2022-12-18T02:53:51;-4.70;99.90
28677;DHT22;15858;48.338;11.078;2022-12-18T02:56:28;-4.70;99.90
28677;DHT22;15858;48.338;11.078;2022-12-18T02:59:00;-4.70;99.90
28677;DHT22;15858;48.338;11.078;2022-12-18T03:04:16;-4.50;99.90
28677;DHT22;15858;48.338;11.078;2022-12-18T03:06:51;-4.40;99.90
28677;DHT22;15858;48.338;11.078;2022-12-18T03:09:24;-4.50;99.90
28677;DHT22;15858;48.338;11.078;2022-12-18T03:11:58;-4.50;99.90
28677;DHT22;15858;48.338;11.078;2022-12-18T03:14:27;-4.50;99.90
28677;DHT22;15858;48.338;11.078;2022-12-18T03:17:00;-4.60;99.90
28677;DHT22;15858;48.338;11.078;2022-12-18T03:19:29;-4.60;99.90
28677;DHT22;15858;48.338;11.078;2022-12-18T03:21:58;-4.60;99.90
28677;DHT22;15858;48.338;11.078;2022-12-18T03:24:29;-4.80;99.90
28677;DHT22;15858;48.338;11.078;2022-12-18T03:27:01;-4.50;99.90
28677;DHT22;15858;48.338;11.078;2022-12-18T03:29:35;-4.40;99.90
28677;DHT22;15858;48.338;11.078;2022-12-18T03:32:07;-4.50;99.90
28677;DHT22;15858;48.338;11.078;2022-12-18T03:34:38;-4.70;99.90
28677;DHT22;15858;48.338;11.078;2022-12-18T03:37:06;-4.60;99.90
28677;DHT22;15858;48.338;11.078;2022-12-18T03:39:35;-4.70;99.90
28677;DHT22;15858;48.338;11.078;2022-12-18T03:45:02;-4.60;99.90
28677;DHT22;15858;48.338;11.078;2022-12-18T03:47:42;-4.50;99.90
28677;DHT22;15858;48.338;11.078;2022-12-18T03:55:36;-4.50;99.90
28677;DHT22;15858;48.338;11.078;2022-12-18T03:58:04;-4.60;99.90
28677;DHT22;15858;48.338;11.078;2022-12-18T04:00:33;-4.60;99.90
28677;DHT22;15858;48.338;11.078;2022-12-18T04:03:01;-4.50;99.90
28677;DHT22;15858;48.338;11.078;2022-12-18T04:05:30;-4.60;99.90
28677;DHT22;15858;48.338;11.078;2022-12-18T04:07:58;-4.40;99.90
28677;DHT22;15858;48.338;11.078;2022-12-18T04:10:25;-4.40;99.90
28677;DHT22;15858;48.338;11.078;2022-12-18T04:12:55;-4.40;99.90
28677;DHT22;15858;48.338;11.078;2022-12-18T04:15:23;-4.50;99.90
28677;DHT22;15858;48.338;11.078;2022-12-18T04:17:50;-4.40;99.90
28677;DHT22;15858;48.338;11.078;2022-12-18T04:20:17;-4.40;99.90
28677;DHT22;15858;48.338;11.078;2022-12-18T04:22:43;-4.40;99.90
28677;DHT22;15858;48.338;11.078;2022-12-18T04:25:11;-4.50;99.90
28677;DHT22;15858;48.338;11.078;2022-12-18T04:27:38;-4.50;99.90
28677;DHT22;15858;48.338;11.078;2022-12-18T04:30:05;-4.50;99.90
28677;DHT22;15858;48.338;11.078;2022-12-18T04:32:34;-4.40;99.90
28677;DHT22;15858;48.338;11.078;2022-12-18T04:35:00;-4.30;99.90
28677;DHT22;15858;48.338;11.078;2022-12-18T04:37:27;-4.30;99.90
28677;DHT22;15858;48.338;11.078;2022-12-18T04:39:54;-4.40;99.90
28677;DHT22;15858;48.338;11.078;2022-12-18T04:42:20;-4.60;99.90
28677;DHT22;15858;48.338;11.078;2022-12-18T04:44:47;-4.70;99.90
28677;DHT22;15858;48.338;11.078;2022-12-18T04:47:14;-4.70;99.90
28677;DHT22;15858;48.338;11.078;2022-12-18T04:49:40;-4.70;99.90
28677;DHT22;15858;48.338;11.078;2022-12-18T04:52:07;-4.70;99.90
28677;DHT22;15858;48.338;11.078;2022-12-18T04:54:33;-4.70;99.90
28677;DHT22;15858;48.338;11.078;2022-12-18T04:57:00;-4.70;99.90
28677;DHT22;15858;48.338;11.078;2022-12-18T04:59:27;-4.60;99.90
28677;DHT22;15858;48.338;11.078;2022-12-18T05:01:53;-4.50;99.90
28677;DHT22;15858;48.338;11.078;2022-12-18T05:04:20;-4.50;99.90
28677;DHT22;15858;48.338;11.078;2022-12-18T05:06:46;-4.50;99.90
28677;DHT22;15858;48.338;11.078;2022-12-18T05:09:14;-4.50;99.90
28677;DHT22;15858;48.338;11.078;2022-12-18T05:11:40;-4.50;99.90
28677;DHT22;15858;48.338;11.078;2022-12-18T05:14:07;-4.50;99.90
28677;DHT22;15858;48.338;11.078;2022-12-18T05:16:33;-4.50;99.90
28677;DHT22;15858;48.338;11.078;2022-12-18T05:19:00;-4.60;99.90
28677;DHT22;15858;48.338;11.078;2022-12-18T05:21:27;-4.50;99.90
28677;DHT22;15858;48.338;11.078;2022-12-18T05:23:53;-4.60;99.90
28677;DHT22;15858;48.338;11.078;2022-12-18T05:26:20;-4.50;99.90
28677;DHT22;15858;48.338;11.078;2022-12-18T05:28:47;-4.50;99.90
28677;DHT22;15858;48.338;11.078;2022-12-18T05:31:13;-4.40;99.90
28677;DHT22;15858;48.338;11.078;2022-12-18T05:33:40;-4.40;99.90
28677;DHT22;15858;48.338;11.078;2022-12-18T05:36:09;-4.40;99.90
28677;DHT22;15858;48.338;11.078;2022-12-18T05:38:37;-4.50;99.90
28677;DHT22;15858;48.338;11.078;2022-12-18T05:41:04;-4.60;99.90
28677;DHT22;15858;48.338;11.078;2022-12-18T05:43:31;-4.50;99.90
28677;DHT22;15858;48.338;11.078;2022-12-18T05:46:21;-4.50;99.90
28677;DHT22;15858;48.338;11.078;2022-12-18T05:48:47;-4.50;99.90
28677;DHT22;15858;48.338;11.078;2022-12-18T05:51:16;-4.40;99.90
28677;DHT22;15858;48.338;11.078;2022-12-18T05:53:43;-4.40;99.90
28677;DHT22;15858;48.338;11.078;2022-12-18T05:56:16;-4.30;99.90
28677;DHT22;15858;48.338;11.078;2022-12-18T05:58:43;-4.30;99.90
28677;DHT22;15858;48.338;11.078;2022-12-18T06:01:28;-4.30;99.90
28677;DHT22;15858;48.338;11.078;2022-12-18T06:03:55;-4.20;99.90
28677;DHT22;15858;48.338;11.078;2022-12-18T06:06:25;-4.30;99.90
28677;DHT22;15858;48.338;11.078;2022-12-18T06:08:53;-4.40;99.90
28677;DHT22;15858;48.338;11.078;2022-12-18T06:11:22;-4.50;99.90
28677;DHT22;15858;48.338;11.078;2022-12-18T06:13:50;-4.40;99.90
28677;DHT22;15858;48.338;11.078;2022-12-18T06:16:23;-4.30;99.90
28677;DHT22;15858;48.338;11.078;2022-12-18T06:18:50;-4.20;99.90
28677;DHT22;15858;48.338;11.078;2022-12-18T06:21:16;-4.20;99.90
28677;DHT22;15858;48.338;11.078;2022-12-18T06:23:43;-4.20;99.90
28677;DHT22;15858;48.338;11.078;2022-12-18T06:26:12;-4.30;99.90
28677;DHT22;15858;48.338;11.078;2022-12-18T06:28:39;-4.30;99.90
28677;DHT22;15858;48.338;11.078;2022-12-18T06:31:06;-4.30;99.90
28677;DHT22;15858;48.338;11.078;2022-12-18T06:33:33;-4.40;99.90
28677;DHT22;15858;48.338;11.078;2022-12-18T06:36:02;-4.30;99.90
28677;DHT22;15858;48.338;11.078;2022-12-18T06:38:31;-4.40;99.90
28677;DHT22;15858;48.338;11.078;2022-12-18T06:40:58;-4.40;99.90
28677;DHT22;15858;48.338;11.078;2022-12-18T06:43:24;-4.30;99.90
28677;DHT22;15858;48.338;11.078;2022-12-18T06:45:57;-4.30;99.90
28677;DHT22;15858;48.338;11.078;2022-12-18T06:48:23;-4.40;99.90
28677;DHT22;15858;48.338;11.078;2022-12-18T06:50:50;-4.30;99.90
28677;DHT22;15858;48.338;11.078;2022-12-18T06:53:16;-4.20;99.90
28677;DHT22;15858;48.338;11.078;2022-12-18T06:55:43;-4.30;99.90
28677;DHT22;15858;48.338;11.078;2022-12-18T06:58:10;-4.20;99.90
28677;DHT22;15858;48.338;11.078;2022-12-18T07:00:37;-4.20;99.90
28677;DHT22;15858;48.338;11.078;2022-12-18T07:03:03;-4.20;99.90
28677;DHT22;15858;48.338;11.078;2022-12-18T07:05:30;-4.10;99.90
28677;DHT22;15858;48.338;11.078;2022-12-18T07:07:58;-4.20;99.90
28677;DHT22;15858;48.338;11.078;2022-12-18T07:10:25;-4.20;99.90
28677;DHT22;15858;48.338;11.078;2022-12-18T07:12:52;-4.20;99.90
28677;DHT22;15858;48.338;11.078;2022-12-18T07:15:18;-4.30;99.90
28677;DHT22;15858;48.338;11.078;2022-12-18T07:17:45;-4.20;99.90
28677;DHT22;15858;48.338;11.078;2022-12-18T07:20:11;-4.20;99.90
28677;DHT22;15858;48.338;11.078;2022-12-18T07:22:38;-4.30;99.90
28677;DHT22;15858;48.338;11.078;2022-12-18T07:25:05;-4.20;99.90
28677;DHT22;15858;48.338;11.078;2022-12-18T07:27:32;-4.20;99.90
28677;DHT22;15858;48.338;11.078;2022-12-18T07:29:58;-4.40;99.90
28677;DHT22;15858;48.338;11.078;2022-12-18T07:32:25;-4.40;99.90
28677;DHT22;15858;48.338;11.078;2022-12-18T07:34:52;-4.40;99.90
28677;DHT22;15858;48.338;11.078;2022-12-18T07:37:18;-4.30;99.90
28677;DHT22;15858;48.338;11.078;2022-12-18T07:39:45;-4.40;99.90
28677;DHT22;15858;48.338;11.078;2022-12-18T07:42:15;-4.40;99.90
28677;DHT22;15858;48.338;11.078;2022-12-18T07:44:42;-4.50;99.90
28677;DHT22;15858;48.338;11.078;2022-12-18T07:47:08;-4.40;99.90
28677;DHT22;15858;48.338;11.078;2022-12-18T07:49:38;-4.40;99.90
28677;DHT22;15858;48.338;11.078;2022-12-18T07:52:04;-4.30;99.90
28677;DHT22;15858;48.338;11.078;2022-12-18T07:54:31;-4.40;99.90
28677;DHT22;15858;48.338;11.078;2022-12-18T07:56:57;-4.30;99.90
28677;DHT22;15858;48.338;11.078;2022-12-18T07:59:24;-4.20;99.90
28677;DHT22;15858;48.338;11.078;2022-12-18T08:01:51;-4.10;99.90
28677;DHT22;15858;48.338;11.078;2022-12-18T08:04:18;-4.00;99.90
28677;DHT22;15858;48.338;11.078;2022-12-18T08:06:45;-4.10;99.90
28677;DHT22;15858;48.338;11.078;2022-12-18T08:09:14;-4.20;99.90
28677;DHT22;15858;48.338;11.078;2022-12-18T08:11:40;-4.20;99.90
28677;DHT22;15858;48.338;11.078;2022-12-18T08:14:07;-4.20;99.90
28677;DHT22;15858;48.338;11.078;2022-12-18T08:16:34;-4.20;99.90
28677;DHT22;15858;48.338;11.078;2022-12-18T08:19:01;-4.20;99.90
28677;DHT22;15858;48.338;11.078;2022-12-18T08:21:30;-4.10;99.90
28677;DHT22;15858;48.338;11.078;2022-12-18T08:23:59;-4.00;99.90
28677;DHT22;15858;48.338;11.078;2022-12-18T08:26:29;-4.00;99.90
28677;DHT22;15858;48.338;11.078;2022-12-18T08:28:58;-3.90;99.90
28677;DHT22;15858;48.338;11.078;2022-12-18T08:31:26;-4.00;99.90
28677;DHT22;15858;48.338;11.078;2022-12-18T08:33:54;-3.80;99.90
28677;DHT22;15858;48.338;11.078;2022-12-18T08:36:22;-3.80;99.90
28677;DHT22;15858;48.338;11.078;2022-12-18T08:38:50;-3.90;99.90
28677;DHT22;15858;48.338;11.078;2022-12-18T08:41:18;-3.90;99.90
28677;DHT22;15858;48.338;11.078;2022-12-18T08:43:45;-3.90;99.90
28677;DHT22;15858;48.338;11.078;2022-12-18T08:46:12;-3.80;99.90
28677;DHT22;15858;48.338;11.078;2022-12-18T08:48:39;-3.90;99.90
28677;DHT22;15858;48.338;11.078;2022-12-18T08:51:05;-3.80;99.90
28677;DHT22;15858;48.338;11.078;2022-12-18T08:53:32;-3.80;99.90
28677;DHT22;15858;48.338;11.078;2022-12-18T08:56:01;-3.70;99.90
28677;DHT22;15858;48.338;11.078;2022-12-18T08:58:28;-3.70;99.90
28677;DHT22;15858;48.338;11.078;2022-12-18T09:01:03;-3.70;99.90
28677;DHT22;15858;48.338;11.078;2022-12-18T09:03:31;-3.70;99.90
28677;DHT22;15858;48.338;11.078;2022-12-18T09:05:58;-3.70;99.90
28677;DHT22;15858;48.338;11.078;2022-12-18T09:08:28;-3.70;99.90
28677;DHT22;15858;48.338;11.078;2022-12-18T09:10:55;-3.80;99.90
28677;DHT22;15858;48.338;11.078;2022-12-18T09:13:22;-3.70;99.90
28677;DHT22;15858;48.338;11.078;2022-12-18T09:15:51;-3.90;99.90
28677;DHT22;15858;48.338;11.078;2022-12-18T09:18:20;-3.90;99.90
28677;DHT22;15858;48.338;11.078;2022-12-18T09:20:47;-3.80;99.90
28677;DHT22;15858;48.338;11.078;2022-12-18T09:23:14;-4.00;99.90
28677;DHT22;15858;48.338;11.078;2022-12-18T09:25:41;-3.90;99.90
28677;DHT22;15858;48.338;11.078;2022-12-18T09:28:15;-3.80;99.90
28677;DHT22;15858;48.338;11.078;2022-12-18T09:30:47;-3.80;99.90
28677;DHT22;15858;48.338;11.078;2022-12-18T09:33:15;-3.60;99.90
28677;DHT22;15858;48.338;11.078;2022-12-18T09:35:44;-3.70;99.90
28677;DHT22;15858;48.338;11.078;2022-12-18T09:38:14;-3.70;99.90
28677;DHT22;15858;48.338;11.078;2022-12-18T09:40:49;-3.90;99.90
28677;DHT22;15858;48.338;11.078;2022-12-18T09:43:20;-3.80;99.90
28677;DHT22;15858;48.338;11.078;2022-12-18T09:45:53;-3.80;99.90
28677;DHT22;15858;48.338;11.078;2022-12-18T09:48:38;-3.80;99.90
28677;DHT22;15858;48.338;11.078;2022-12-18T09:51:22;-3.90;99.90
28677;DHT22;15858;48.338;11.078;2022-12-18T09:54:30;-3.90;99.90
28677;DHT22;15858;48.338;11.078;2022-12-18T09:56:49;-3.70;99.90
28677;DHT22;15858;48.338;11.078;2022-12-18T09:59:30;-3.70;99.90
28677;DHT22;15858;48.338;11.078;2022-12-18T10:01:58;-3.60;99.90
28677;DHT22;15858;48.338;11.078;2022-12-18T10:04:29;-3.70;99.90
28677;DHT22;15858;48.338;11.078;2022-12-18T10:07:15;-3.60;99.90
28677;DHT22;15858;48.338;11.078;2022-12-18T10:10:13;-3.70;99.90
28677;DHT22;15858;48.338;11.078;2022-12-18T10:12:54;-3.70;99.90
28677;DHT22;15858;48.338;11.078;2022-12-18T10:15:42;-3.50;99.90
28677;DHT22;15858;48.338;11.078;2022-12-18T10:20:57;-3.50;99.90
28677;DHT22;15858;48.338;11.078;2022-12-18T10:24:08;-3.50;99.90
28677;DHT22;15858;48.338;11.078;2022-12-18T10:26:31;-3.50;99.90
28677;DHT22;15858;48.338;11.078;2022-12-18T10:28:59;-3.70;99.90
28677;DHT22;15858;48.338;11.078;2022-12-18T10:31:31;-3.70;99.90
28677;DHT22;15858;48.338;11.078;2022-12-18T10:33:57;-3.80;99.90
28677;DHT22;15858;48.338;11.078;2022-12-18T10:36:24;-3.60;99.90
28677;DHT22;15858;48.338;11.078;2022-12-18T10:38:51;-3.80;99.90
28677;DHT22;15858;48.338;11.078;2022-12-18T10:43:47;-4.00;99.90
28677;DHT22;15858;48.338;11.078;2022-12-18T10:46:16;-3.80;99.90
28677;DHT22;15858;48.338;11.078;2022-12-18T10:51:39;-3.60;99.90
28677;DHT22;15858;48.338;11.078;2022-12-18T10:54:21;-3.40;99.90
28677;DHT22;15858;48.338;11.078;2022-12-18T10:56:47;-3.40;99.90
28677;DHT22;15858;48.338;11.078;2022-12-18T10:59:16;-3.50;99.90
28677;DHT22;15858;48.338;11.078;2022-12-18T11:04:21;-3.70;99.90
28677;DHT22;15858;48.338;11.078;2022-12-18T11:09:31;-3.50;99.90
28677;DHT22;15858;48.338;11.078;2022-12-18T11:12:00;-3.50;99.90
28677;DHT22;15858;48.338;11.078;2022-12-18T11:14:33;-3.40;99.90
28677;DHT22;15858;48.338;11.078;2022-12-18T11:17:00;-3.40;99.90
28677;DHT22;15858;48.338;11.078;2022-12-18T11:19:53;-3.40;99.90
28677;DHT22;15858;48.338;11.078;2022-12-18T11:22:27;-3.70;99.90
28677;DHT22;15858;48.338;11.078;2022-12-18T11:24:56;-3.70;99.90
28677;DHT22;15858;48.338;11.078;2022-12-18T11:27:55;-3.50;99.90
28677;DHT22;15858;48.338;11.078;2022-12-18T11:30:36;-3.30;99.90
28677;DHT22;15858;48.338;11.078;2022-12-18T11:33:10;-3.40;99.90
28677;DHT22;15858;48.338;11.078;2022-12-18T11:35:56;-3.50;99.90
28677;DHT22;15858;48.338;11.078;2022-12-18T11:38:32;-3.40;99.90
28677;DHT22;15858;48.338;11.078;2022-12-18T11:41:07;-3.40;99.90
28677;DHT22;15858;48.338;11.078;2022-12-18T11:46:15;-3.40;99.90
28677;DHT22;15858;48.338;11.078;2022-12-18T11:52:04;-3.30;99.90
28677;DHT22;15858;48.338;11.078;2022-12-18T11:54:15;-3.20;99.90
28677;DHT22;15858;48.338;11.078;2022-12-18T12:03:00;-3.20;99.90
28677;DHT22;15858;48.338;11.078;2022-12-18T12:06:00;-3.50;99.90
28677;DHT22;15858;48.338;11.078;2022-12-18T12:11:35;-3.60;99.90
28677;DHT22;15858;48.338;11.078;2022-12-18T12:16:51;-3.30;99.90
28677;DHT22;15858;48.338;11.078;2022-12-18T12:22:35;-3.40;99.90
28677;DHT22;15858;48.338;11.078;2022-12-18T12:25:00;-3.30;99.90
28677;DHT22;15858;48.338;11.078;2022-12-18T12:27:38;-3.20;99.90
28677;DHT22;15858;48.338;11.078;2022-12-18T12:30:21;-3.30;99.90
28677;DHT22;15858;48.338;11.078;2022-12-18T12:32:57;-3.30;99.90
28677;DHT22;15858;48.338;11.078;2022-12-18T12:38:22;-3.50;99.90
28677;DHT22;15858;48.338;11.078;2022-12-18T12:40:57;-3.40;99.90
28677;DHT22;15858;48.338;11.078;2022-12-18T12:43:44;-3.40;99.90
28677;DHT22;15858;48.338;11.078;2022-12-18T12:46:18;-3.40;99.90
28677;DHT22;15858;48.338;11.078;2022-12-18T12:48:53;-3.50;99.90
28677;DHT22;15858;48.338;11.078;2022-12-18T12:51:25;-3.50;99.90
28677;DHT22;15858;48.338;11.078;2022-12-18T12:53:54;-3.40;99.90
28677;DHT22;15858;48.338;11.078;2022-12-18T12:56:25;-3.50;99.90
28677;DHT22;15858;48.338;11.078;2022-12-18T13:01:49;-3.30;99.90
28677;DHT22;15858;48.338;11.078;2022-12-18T13:04:42;-3.20;99.90
28677;DHT22;15858;48.338;11.078;2022-12-18T13:10:23;-3.40;99.90
28677;DHT22;15858;48.338;11.078;2022-12-18T13:15:47;-3.40;99.90
28677;DHT22;15858;48.338;11.078;2022-12-18T13:18:15;-3.50;99.90
28677;DHT22;15858;48.338;11.078;2022-12-18T13:20:47;-3.40;99.90
28677;DHT22;15858;48.338;11.078;2022-12-18T13:31:00;-3.50;99.90
28677;DHT22;15858;48.338;11.078;2022-12-18T13:33:37;-3.50;99.90
28677;DHT22;15858;48.338;11.078;2022-12-18T13:36:29;-3.40;99.90
28677;DHT22;15858;48.338;11.078;2022-12-18T13:42:37;-3.60;99.90
28677;DHT22;15858;48.338;11.078;2022-12-18T13:44:40;-3.60;99.90
28677;DHT22;15858;48.338;11.078;2022-12-18T13:47:27;-3.50;99.90
28677;DHT22;15858;48.338;11.078;2022-12-18T13:49:56;-3.70;99.90
28677;DHT22;15858;48.338;11.078;2022-12-18T13:52:28;-4.00;99.90
28677;DHT22;15858;48.338;11.078;2022-12-18T13:55:02;-3.90;99.90
28677;DHT22;15858;48.338;11.078;2022-12-18T13:57:37;-4.00;99.90
28677;DHT22;15858;48.338;11.078;2022-12-18T14:00:27;-3.90;99.90
28677;DHT22;15858;48.338;11.078;2022-12-18T14:02:54;-3.80;99.90
28677;DHT22;15858;48.338;11.078;2022-12-18T14:05:33;-3.80;99.90
28677;DHT22;15858;48.338;11.078;2022-12-18T14:08:12;-3.80;99.90
28677;DHT22;15858;48.338;11.078;2022-12-18T14:10:45;-3.90;99.90
28677;DHT22;15858;48.338;11.078;2022-12-18T14:13:24;-3.90;99.90
28677;DHT22;15858;48.338;11.078;2022-12-18T14:15:54;-3.70;99.90
28677;DHT22;15858;48.338;11.078;2022-12-18T14:18:50;-3.80;99.90
28677;DHT22;15858;48.338;11.078;2022-12-18T14:21:27;-3.90;99.90
28677;DHT22;15858;48.338;11.078;2022-12-18T14:26:40;-3.80;99.90
28677;DHT22;15858;48.338;11.078;2022-12-18T14:29:27;-3.90;99.90
28677;DHT22;15858;48.338;11.078;2022-12-18T14:32:11;-4.00;99.90
28677;DHT22;15858;48.338;11.078;2022-12-18T14:34:51;-4.00;99.90
28677;DHT22;15858;48.338;11.078;2022-12-18T14:37:24;-4.10;99.90
28677;DHT22;15858;48.338;11.078;2022-12-18T14:40:01;-4.00;99.90
28677;DHT22;15858;48.338;11.078;2022-12-18T14:42:36;-3.80;99.90
28677;DHT22;15858;48.338;11.078;2022-12-18T14:45:37;-4.10;99.90
28677;DHT22;15858;48.338;11.078;2022-12-18T14:50:39;-4.10;99.90
28677;DHT22;15858;48.338;11.078;2022-12-18T14:53:05;-4.00;99.90
28677;DHT22;15858;48.338;11.078;2022-12-18T14:55:32;-4.00;99.90
28677;DHT22;15858;48.338;11.078;2022-12-18T14:57:59;-4.00;99.90
28677;DHT22;15858;48.338;11.078;2022-12-18T15:00:26;-4.10;99.90
28677;DHT22;15858;48.338;11.078;2022-12-18T15:02:55;-4.00;99.90
28677;DHT22;15858;48.338;11.078;2022-12-18T15:05:30;-4.00;99.90
28677;DHT22;15858;48.338;11.078;2022-12-18T15:07:58;-4.00;99.90
28677;DHT22;15858;48.338;11.078;2022-12-18T15:10:27;-4.10;99.90
28677;DHT22;15858;48.338;11.078;2022-12-18T15:20:45;-3.90;99.90
28677;DHT22;15858;48.338;11.078;2022-12-18T15:23:24;-3.90;99.90
28677;DHT22;15858;48.338;11.078;2022-12-18T15:25:57;-4.00;99.90
28677;DHT22;15858;48.338;11.078;2022-12-18T15:28:25;-3.90;99.90
28677;DHT22;15858;48.338;11.078;2022-12-18T15:31:36;-4.10;99.90
28677;DHT22;15858;48.338;11.078;2022-12-18T15:34:20;-4.00;99.90
28677;DHT22;15858;48.338;11.078;2022-12-18T15:36:47;-4.00;99.90
28677;DHT22;15858;48.338;11.078;2022-12-18T15:39:14;-4.00;99.90
28677;DHT22;15858;48.338;11.078;2022-12-18T15:41:40;-4.00;99.90
28677;DHT22;15858;48.338;11.078;2022-12-18T15:44:22;-4.10;99.90
28677;DHT22;15858;48.338;11.078;2022-12-18T15:46:49;-4.20;99.90
28677;DHT22;15858;48.338;11.078;2022-12-18T15:49:16;-4.20;99.90
28677;DHT22;15858;48.338;11.078;2022-12-18T15:51:42;-4.20;99.90
28677;DHT22;15858;48.338;11.078;2022-12-18T15:54:13;-4.20;99.90
28677;DHT22;15858;48.338;11.078;2022-12-18T15:56:41;-4.00;99.90
28677;DHT22;15858;48.338;11.078;2022-12-18T15:59:16;-4.10;99.90
28677;DHT22;15858;48.338;11.078;2022-12-18T16:01:45;-4.20;99.90
28677;DHT22;15858;48.338;11.078;2022-12-18T16:04:14;-4.10;99.90
28677;DHT22;15858;48.338;11.078;2022-12-18T16:06:41;-4.20;99.90
28677;DHT22;15858;48.338;11.078;2022-12-18T16:09:27;-4.10;99.90
28677;DHT22;15858;48.338;11.078;2022-12-18T16:11:54;-4.00;99.90
28677;DHT22;15858;48.338;11.078;2022-12-18T16:14:22;-3.90;99.90
28677;DHT22;15858;48.338;11.078;2022-12-18T16:16:51;-4.00;99.90
28677;DHT22;15858;48.338;11.078;2022-12-18T16:19:18;-4.20;99.90
28677;DHT22;15858;48.338;11.078;2022-12-18T16:21:46;-4.20;99.90
28677;DHT22;15858;48.338;11.078;2022-12-18T16:24:22;-4.20;99.90
28677;DHT22;15858;48.338;11.078;2022-12-18T16:26:49;-4.10;99.90
28677;DHT22;15858;48.338;11.078;2022-12-18T16:29:16;-4.30;99.90
28677;DHT22;15858;48.338;11.078;2022-12-18T16:31:43;-4.20;99.90
28677;DHT22;15858;48.338;11.078;2022-12-18T16:34:27;-4.20;99.90
28677;DHT22;15858;48.338;11.078;2022-12-18T16:37:06;-4.10;99.90
28677;DHT22;15858;48.338;11.078;2022-12-18T16:39:33;-4.30;99.90
28677;DHT22;15858;48.338;11.078;2022-12-18T16:42:16;-4.30;99.90
28677;DHT22;15858;48.338;11.078;2022-12-18T16:44:44;-4.30;99.90
28677;DHT22;15858;48.338;11.078;2022-12-18T16:47:11;-4.40;99.90
28677;DHT22;15858;48.338;11.078;2022-12-18T16:49:41;-4.20;99.90
28677;DHT22;15858;48.338;11.078;2022-12-18T16:52:08;-4.10;99.90
28677;DHT22;15858;48.338;11.078;2022-12-18T16:54:34;-4.20;99.90
28677;DHT22;15858;48.338;11.078;2022-12-18T16:57:02;-4.20;99.90
28677;DHT22;15858;48.338;11.078;2022-12-18T16:59:28;-4.20;99.90
28677;DHT22;15858;48.338;11.078;2022-12-18T17:01:55;-4.20;99.90
28677;DHT22;15858;48.338;11.078;2022-12-18T17:04:23;-4.20;99.90
28677;DHT22;15858;48.338;11.078;2022-12-18T17:06:49;-4.10;99.90
28677;DHT22;15858;48.338;11.078;2022-12-18T17:09:17;-4.00;99.90
28677;DHT22;15858;48.338;11.078;2022-12-18T17:11:44;-4.10;99.90
28677;DHT22;15858;48.338;11.078;2022-12-18T17:14:17;-4.20;99.90
28677;DHT22;15858;48.338;11.078;2022-12-18T17:16:44;-4.00;99.90
28677;DHT22;15858;48.338;11.078;2022-12-18T17:19:11;-4.00;99.90
28677;DHT22;15858;48.338;11.078;2022-12-18T17:21:44;-4.00;99.90
28677;DHT22;15858;48.338;11.078;2022-12-18T17:24:11;-4.00;99.90